sensor_id;sensor_type;location;lat;lon;timestamp;P1;durP1;ratioP1;P2;durP2;ratioP2
55308;SDS011;44028;51.358;19.876;2022-12-01T00:01:25;47.13;;;18.27;;
55308;SDS011;44028;51.358;19.876;2022-12-01T00:04:05;37.40;;;16.25;;
55308;SDS011;44028;51.358;19.876;2022-12-01T00:06:32;29.90;;;13.68;;
55308;SDS011;44028;51.358;19.876;2022-12-01T00:09:08;34.70;;;15.57;;
55308;SDS011;44028;51.358;19.876;2022-12-01T00:11:49;34.83;;;14.18;;
55308;SDS011;44028;51.358;19.876;2022-12-01T00:14:18;46.95;;;17.27;;
55308;SDS011;44028;51.358;19.876;2022-12-01T00:16:45;34.80;;;14.20;;
55308;SDS011;44028;51.358;19.876;2022-12-01T00:19:12;30.02;;;13.30;;
55308;SDS011;44028;51.358;19.876;2022-12-01T00:21:39;28.52;;;14.15;;
55308;SDS011;44028;51.358;19.876;2022-12-01T00:24:07;33.33;;;14.85;;
55308;SDS011;44028;51.358;19.876;2022-12-01T00:26:36;33.67;;;13.90;;
55308;SDS011;44028;51.358;19.876;2022-12-01T00:29:06;29.75;;;13.52;;
55308;SDS011;44028;51.358;19.876;2022-12-01T00:31:33;33.30;;;13.75;;
55308;SDS011;44028;51.358;19.876;2022-12-01T00:34:02;32.25;;;14.35;;
55308;SDS011;44028;51.358;19.876;2022-12-01T00:36:37;41.03;;;16.35;;
55308;SDS011;44028;51.358;19.876;2022-12-01T00:39:03;36.97;;;15.30;;
55308;SDS011;44028;51.358;19.876;2022-12-01T00:41:30;36.00;;;15.05;;
55308;SDS011;44028;51.358;19.876;2022-12-01T00:43:57;39.53;;;15.65;;
55308;SDS011;44028;51.358;19.876;2022-12-01T00:46:24;38.65;;;16.52;;
55308;SDS011;44028;51.358;19.876;2022-12-01T00:48:51;37.97;;;15.45;;
55308;SDS011;44028;51.358;19.876;2022-12-01T00:51:18;31.17;;;14.02;;
55308;SDS011;44028;51.358;19.876;2022-12-01T00:53:48;36.28;;;15.25;;
55308;SDS011;44028;51.358;19.876;2022-12-01T00:56:15;36.42;;;15.50;;
55308;SDS011;44028;51.358;19.876;2022-12-01T00:58:42;39.55;;;15.10;;
55308;SDS011;44028;51.358;19.876;2022-12-01T01:01:21;36.13;;;15.35;;
55308;SDS011;44028;51.358;19.876;2022-12-01T01:03:48;39.50;;;15.95;;
55308;SDS011;44028;51.358;19.876;2022-12-01T01:06:30;40.78;;;15.48;;
55308;SDS011;44028;51.358;19.876;2022-12-01T01:08:57;49.55;;;17.80;;
55308;SDS011;44028;51.358;19.876;2022-12-01T01:11:30;36.13;;;15.88;;
55308;SDS011;44028;51.358;19.876;2022-12-01T01:13:57;31.60;;;14.65;;
55308;SDS011;44028;51.358;19.876;2022-12-01T01:16:24;30.10;;;14.20;;
55308;SDS011;44028;51.358;19.876;2022-12-01T01:18:52;38.45;;;19.17;;
55308;SDS011;44028;51.358;19.876;2022-12-01T01:21:19;58.22;;;28.75;;
55308;SDS011;44028;51.358;19.876;2022-12-01T01:23:47;61.60;;;20.75;;
55308;SDS011;44028;51.358;19.876;2022-12-01T01:26:15;49.78;;;20.27;;
55308;SDS011;44028;51.358;19.876;2022-12-01T01:28:43;50.25;;;19.40;;
55308;SDS011;44028;51.358;19.876;2022-12-01T01:31:11;48.38;;;17.55;;
55308;SDS011;44028;51.358;19.876;2022-12-01T01:33:50;34.88;;;15.38;;
55308;SDS011;44028;51.358;19.876;2022-12-01T01:36:26;31.63;;;14.18;;
55308;SDS011;44028;51.358;19.876;2022-12-01T01:38:53;35.90;;;15.85;;
55308;SDS011;44028;51.358;19.876;2022-12-01T01:41:21;34.15;;;15.07;;
55308;SDS011;44028;51.358;19.876;2022-12-01T01:48:55;38.45;;;16.65;;
55308;SDS011;44028;51.358;19.876;2022-12-01T01:51:40;34.97;;;15.05;;
55308;SDS011;44028;51.358;19.876;2022-12-01T01:54:10;38.30;;;16.73;;
55308;SDS011;44028;51.358;19.876;2022-12-01T01:56:44;34.33;;;15.75;;
55308;SDS011;44028;51.358;19.876;2022-12-01T01:59:12;32.40;;;15.35;;
55308;SDS011;44028;51.358;19.876;2022-12-01T02:01:40;37.33;;;15.55;;
55308;SDS011;44028;51.358;19.876;2022-12-01T02:04:07;37.25;;;16.30;;
55308;SDS011;44028;51.358;19.876;2022-12-01T02:06:34;37.03;;;16.00;;
55308;SDS011;44028;51.358;19.876;2022-12-01T02:09:02;33.75;;;15.57;;
55308;SDS011;44028;51.358;19.876;2022-12-01T02:25:02;35.88;;;14.98;;
55308;SDS011;44028;51.358;19.876;2022-12-01T02:27:47;36.20;;;16.08;;
55308;SDS011;44028;51.358;19.876;2022-12-01T02:41:00;39.17;;;17.33;;
55308;SDS011;44028;51.358;19.876;2022-12-01T02:45:59;33.20;;;15.35;;
55308;SDS011;44028;51.358;19.876;2022-12-01T02:48:34;35.13;;;15.68;;
55308;SDS011;44028;51.358;19.876;2022-12-01T02:51:26;35.08;;;15.32;;
55308;SDS011;44028;51.358;19.876;2022-12-01T02:53:49;35.80;;;15.45;;
55308;SDS011;44028;51.358;19.876;2022-12-01T02:56:19;34.67;;;15.35;;
55308;SDS011;44028;51.358;19.876;2022-12-01T02:58:46;35.65;;;14.95;;
55308;SDS011;44028;51.358;19.876;2022-12-01T03:01:26;34.42;;;15.02;;
55308;SDS011;44028;51.358;19.876;2022-12-01T03:06:41;36.38;;;15.15;;
55308;SDS011;44028;51.358;19.876;2022-12-01T03:16:52;35.55;;;15.43;;
55308;SDS011;44028;51.358;19.876;2022-12-01T03:19:26;35.85;;;15.13;;
55308;SDS011;44028;51.358;19.876;2022-12-01T03:22:22;38.50;;;15.80;;
55308;SDS011;44028;51.358;19.876;2022-12-01T03:24:54;38.28;;;17.92;;
55308;SDS011;44028;51.358;19.876;2022-12-01T03:27:25;40.25;;;16.33;;
55308;SDS011;44028;51.358;19.876;2022-12-01T03:29:53;35.55;;;15.43;;
55308;SDS011;44028;51.358;19.876;2022-12-01T03:32:28;38.13;;;15.45;;
55308;SDS011;44028;51.358;19.876;2022-12-01T03:35:32;33.63;;;15.27;;
55308;SDS011;44028;51.358;19.876;2022-12-01T03:38:04;29.75;;;13.68;;
55308;SDS011;44028;51.358;19.876;2022-12-01T03:40:32;31.85;;;13.73;;
55308;SDS011;44028;51.358;19.876;2022-12-01T03:43:02;31.98;;;14.68;;
55308;SDS011;44028;51.358;19.876;2022-12-01T03:48:05;31.92;;;14.52;;
55308;SDS011;44028;51.358;19.876;2022-12-01T03:50:37;35.60;;;13.77;;
55308;SDS011;44028;51.358;19.876;2022-12-01T03:53:17;35.30;;;15.35;;
55308;SDS011;44028;51.358;19.876;2022-12-01T03:55:49;35.53;;;14.07;;
55308;SDS011;44028;51.358;19.876;2022-12-01T03:58:19;33.55;;;13.98;;
55308;SDS011;44028;51.358;19.876;2022-12-01T04:00:48;31.92;;;14.85;;
55308;SDS011;44028;51.358;19.876;2022-12-01T04:03:19;33.63;;;14.50;;
55308;SDS011;44028;51.358;19.876;2022-12-01T04:05:50;33.53;;;14.13;;
55308;SDS011;44028;51.358;19.876;2022-12-01T04:08:17;34.25;;;14.85;;
55308;SDS011;44028;51.358;19.876;2022-12-01T04:10:46;33.95;;;14.38;;
55308;SDS011;44028;51.358;19.876;2022-12-01T04:13:14;34.97;;;14.85;;
55308;SDS011;44028;51.358;19.876;2022-12-01T04:15:54;31.08;;;14.05;;
55308;SDS011;44028;51.358;19.876;2022-12-01T04:18:24;36.05;;;14.77;;
55308;SDS011;44028;51.358;19.876;2022-12-01T04:20:50;32.08;;;13.77;;
55308;SDS011;44028;51.358;19.876;2022-12-01T04:23:20;35.70;;;14.18;;
55308;SDS011;44028;51.358;19.876;2022-12-01T04:26:02;29.95;;;13.05;;
55308;SDS011;44028;51.358;19.876;2022-12-01T04:28:30;32.28;;;13.38;;
55308;SDS011;44028;51.358;19.876;2022-12-01T04:30:57;34.97;;;13.80;;
55308;SDS011;44028;51.358;19.876;2022-12-01T04:33:24;37.75;;;15.77;;
55308;SDS011;44028;51.358;19.876;2022-12-01T04:35:57;33.10;;;14.73;;
55308;SDS011;44028;51.358;19.876;2022-12-01T04:38:24;33.20;;;15.73;;
55308;SDS011;44028;51.358;19.876;2022-12-01T04:40:56;30.63;;;14.65;;
55308;SDS011;44028;51.358;19.876;2022-12-01T04:43:23;40.45;;;16.50;;
55308;SDS011;44028;51.358;19.876;2022-12-01T04:45:52;52.67;;;19.45;;
55308;SDS011;44028;51.358;19.876;2022-12-01T04:48:25;45.03;;;18.35;;
55308;SDS011;44028;51.358;19.876;2022-12-01T04:50:52;52.67;;;18.52;;
55308;SDS011;44028;51.358;19.876;2022-12-01T04:53:19;42.35;;;16.77;;
55308;SDS011;44028;51.358;19.876;2022-12-01T04:55:46;57.92;;;20.20;;
55308;SDS011;44028;51.358;19.876;2022-12-01T05:01:02;49.67;;;19.45;;
55308;SDS011;44028;51.358;19.876;2022-12-01T05:03:29;39.17;;;16.65;;
55308;SDS011;44028;51.358;19.876;2022-12-01T05:06:15;31.25;;;13.32;;
55308;SDS011;44028;51.358;19.876;2022-12-01T05:08:42;31.48;;;14.13;;
55308;SDS011;44028;51.358;19.876;2022-12-01T05:11:16;32.03;;;13.45;;
55308;SDS011;44028;51.358;19.876;2022-12-01T05:13:44;30.75;;;12.88;;
55308;SDS011;44028;51.358;19.876;2022-12-01T05:16:15;30.48;;;13.52;;
55308;SDS011;44028;51.358;19.876;2022-12-01T05:18:46;31.50;;;13.52;;
55308;SDS011;44028;51.358;19.876;2022-12-01T05:21:13;32.88;;;12.77;;
55308;SDS011;44028;51.358;19.876;2022-12-01T05:23:45;30.77;;;13.30;;
55308;SDS011;44028;51.358;19.876;2022-12-01T05:26:12;33.08;;;13.02;;
55308;SDS011;44028;51.358;19.876;2022-12-01T05:28:39;36.78;;;14.68;;
55308;SDS011;44028;51.358;19.876;2022-12-01T05:31:08;31.88;;;14.18;;
55308;SDS011;44028;51.358;19.876;2022-12-01T05:33:38;30.80;;;13.70;;
55308;SDS011;44028;51.358;19.876;2022-12-01T05:36:05;31.67;;;13.55;;
55308;SDS011;44028;51.358;19.876;2022-12-01T05:38:32;30.77;;;13.82;;
55308;SDS011;44028;51.358;19.876;2022-12-01T05:40:59;30.45;;;13.95;;
55308;SDS011;44028;51.358;19.876;2022-12-01T05:43:26;29.65;;;13.27;;
55308;SDS011;44028;51.358;19.876;2022-12-01T05:46:00;29.52;;;14.35;;
55308;SDS011;44028;51.358;19.876;2022-12-01T05:48:27;28.80;;;13.10;;
55308;SDS011;44028;51.358;19.876;2022-12-01T05:50:54;67.55;;;26.27;;
55308;SDS011;44028;51.358;19.876;2022-12-01T05:53:30;99.55;;;38.13;;
55308;SDS011;44028;51.358;19.876;2022-12-01T05:55:57;91.45;;;51.97;;
55308;SDS011;44028;51.358;19.876;2022-12-01T05:58:24;62.15;;;27.38;;
55308;SDS011;44028;51.358;19.876;2022-12-01T06:00:50;71.75;;;20.75;;
55308;SDS011;44028;51.358;19.876;2022-12-01T06:03:17;49.38;;;16.85;;
55308;SDS011;44028;51.358;19.876;2022-12-01T06:05:44;49.28;;;16.42;;
55308;SDS011;44028;51.358;19.876;2022-12-01T06:08:11;45.72;;;17.48;;
55308;SDS011;44028;51.358;19.876;2022-12-01T06:10:38;42.53;;;15.27;;
55308;SDS011;44028;51.358;19.876;2022-12-01T06:13:04;38.00;;;15.88;;
55308;SDS011;44028;51.358;19.876;2022-12-01T06:15:31;45.58;;;16.45;;
55308;SDS011;44028;51.358;19.876;2022-12-01T06:17:58;54.42;;;19.25;;
55308;SDS011;44028;51.358;19.876;2022-12-01T06:20:25;42.67;;;17.13;;
55308;SDS011;44028;51.358;19.876;2022-12-01T06:22:52;37.45;;;14.85;;
55308;SDS011;44028;51.358;19.876;2022-12-01T06:25:18;36.40;;;15.32;;
55308;SDS011;44028;51.358;19.876;2022-12-01T06:27:45;48.83;;;18.20;;
55308;SDS011;44028;51.358;19.876;2022-12-01T06:30:12;37.53;;;14.88;;
55308;SDS011;44028;51.358;19.876;2022-12-01T06:32:39;36.03;;;16.05;;
55308;SDS011;44028;51.358;19.876;2022-12-01T06:35:06;38.22;;;15.85;;
55308;SDS011;44028;51.358;19.876;2022-12-01T06:37:33;38.88;;;16.08;;
55308;SDS011;44028;51.358;19.876;2022-12-01T06:40:05;38.38;;;15.23;;
55308;SDS011;44028;51.358;19.876;2022-12-01T06:42:32;43.92;;;16.27;;
55308;SDS011;44028;51.358;19.876;2022-12-01T06:44:59;105.13;;;41.08;;
55308;SDS011;44028;51.358;19.876;2022-12-01T06:47:26;348.73;;;115.82;;
55308;SDS011;44028;51.358;19.876;2022-12-01T06:49:52;250.20;;;112.80;;
55308;SDS011;44028;51.358;19.876;2022-12-01T06:52:19;78.60;;;35.58;;
55308;SDS011;44028;51.358;19.876;2022-12-01T06:54:46;53.80;;;26.52;;
55308;SDS011;44028;51.358;19.876;2022-12-01T06:57:13;103.40;;;50.50;;
55308;SDS011;44028;51.358;19.876;2022-12-01T06:59:41;96.57;;;37.45;;
55308;SDS011;44028;51.358;19.876;2022-12-01T07:02:09;64.50;;;23.13;;
55308;SDS011;44028;51.358;19.876;2022-12-01T07:04:36;43.53;;;18.20;;
55308;SDS011;44028;51.358;19.876;2022-12-01T07:07:03;45.95;;;19.60;;
55308;SDS011;44028;51.358;19.876;2022-12-01T07:09:30;40.90;;;18.60;;
55308;SDS011;44028;51.358;19.876;2022-12-01T07:11:57;46.35;;;20.95;;
55308;SDS011;44028;51.358;19.876;2022-12-01T07:14:24;46.17;;;18.95;;
55308;SDS011;44028;51.358;19.876;2022-12-01T07:16:52;43.45;;;16.88;;
55308;SDS011;44028;51.358;19.876;2022-12-01T07:19:21;43.90;;;17.17;;
55308;SDS011;44028;51.358;19.876;2022-12-01T07:21:51;44.45;;;18.58;;
55308;SDS011;44028;51.358;19.876;2022-12-01T07:24:18;43.53;;;17.40;;
55308;SDS011;44028;51.358;19.876;2022-12-01T07:26:44;49.00;;;22.65;;
55308;SDS011;44028;51.358;19.876;2022-12-01T07:29:11;49.40;;;21.83;;
55308;SDS011;44028;51.358;19.876;2022-12-01T07:31:38;62.42;;;29.55;;
55308;SDS011;44028;51.358;19.876;2022-12-01T07:34:04;50.88;;;20.65;;
55308;SDS011;44028;51.358;19.876;2022-12-01T07:36:31;47.35;;;18.02;;
55308;SDS011;44028;51.358;19.876;2022-12-01T07:38:58;40.08;;;17.52;;
55308;SDS011;44028;51.358;19.876;2022-12-01T07:41:25;38.05;;;16.85;;
55308;SDS011;44028;51.358;19.876;2022-12-01T07:44:00;36.95;;;16.50;;
55308;SDS011;44028;51.358;19.876;2022-12-01T07:46:27;39.60;;;16.95;;
55308;SDS011;44028;51.358;19.876;2022-12-01T07:48:55;67.07;;;29.63;;
55308;SDS011;44028;51.358;19.876;2022-12-01T07:51:23;44.60;;;19.05;;
55308;SDS011;44028;51.358;19.876;2022-12-01T07:53:50;42.45;;;17.50;;
55308;SDS011;44028;51.358;19.876;2022-12-01T07:56:18;43.45;;;17.88;;
55308;SDS011;44028;51.358;19.876;2022-12-01T07:58:45;40.63;;;18.25;;
55308;SDS011;44028;51.358;19.876;2022-12-01T08:01:19;34.70;;;15.07;;
55308;SDS011;44028;51.358;19.876;2022-12-01T08:03:51;44.22;;;18.77;;
55308;SDS011;44028;51.358;19.876;2022-12-01T08:06:18;39.20;;;16.60;;
55308;SDS011;44028;51.358;19.876;2022-12-01T08:08:45;41.05;;;17.33;;
55308;SDS011;44028;51.358;19.876;2022-12-01T08:11:16;38.00;;;16.27;;
55308;SDS011;44028;51.358;19.876;2022-12-01T08:13:44;37.65;;;16.17;;
55308;SDS011;44028;51.358;19.876;2022-12-01T08:16:11;41.08;;;18.25;;
55308;SDS011;44028;51.358;19.876;2022-12-01T08:18:39;40.90;;;19.30;;
55308;SDS011;44028;51.358;19.876;2022-12-01T08:21:06;37.03;;;17.83;;
55308;SDS011;44028;51.358;19.876;2022-12-01T08:23:36;34.15;;;14.70;;
55308;SDS011;44028;51.358;19.876;2022-12-01T08:26:07;34.92;;;16.15;;
55308;SDS011;44028;51.358;19.876;2022-12-01T08:29:13;33.58;;;15.10;;
55308;SDS011;44028;51.358;19.876;2022-12-01T08:31:48;33.42;;;14.90;;
55308;SDS011;44028;51.358;19.876;2022-12-01T08:34:15;34.47;;;14.98;;
55308;SDS011;44028;51.358;19.876;2022-12-01T08:43:29;28.27;;;13.40;;
55308;SDS011;44028;51.358;19.876;2022-12-01T08:49:20;34.60;;;16.25;;
55308;SDS011;44028;51.358;19.876;2022-12-01T08:52:35;30.52;;;14.68;;
55308;SDS011;44028;51.358;19.876;2022-12-01T08:55:02;34.00;;;14.52;;
55308;SDS011;44028;51.358;19.876;2022-12-01T08:57:47;31.88;;;14.27;;
55308;SDS011;44028;51.358;19.876;2022-12-01T09:00:14;30.02;;;14.63;;
55308;SDS011;44028;51.358;19.876;2022-12-01T09:02:44;33.50;;;13.95;;
55308;SDS011;44028;51.358;19.876;2022-12-01T09:08:44;36.03;;;15.77;;
55308;SDS011;44028;51.358;19.876;2022-12-01T09:11:12;52.05;;;19.83;;
55308;SDS011;44028;51.358;19.876;2022-12-01T09:13:41;80.68;;;29.92;;
55308;SDS011;44028;51.358;19.876;2022-12-01T09:16:20;42.42;;;18.75;;
55308;SDS011;44028;51.358;19.876;2022-12-01T09:18:47;29.52;;;14.45;;
55308;SDS011;44028;51.358;19.876;2022-12-01T09:21:18;28.85;;;13.35;;
55308;SDS011;44028;51.358;19.876;2022-12-01T09:23:46;32.80;;;14.30;;
55308;SDS011;44028;51.358;19.876;2022-12-01T09:26:13;30.05;;;13.93;;
55308;SDS011;44028;51.358;19.876;2022-12-01T09:28:44;41.83;;;18.13;;
55308;SDS011;44028;51.358;19.876;2022-12-01T09:31:11;36.22;;;16.83;;
55308;SDS011;44028;51.358;19.876;2022-12-01T09:33:39;32.88;;;16.27;;
55308;SDS011;44028;51.358;19.876;2022-12-01T09:36:06;36.83;;;17.13;;
55308;SDS011;44028;51.358;19.876;2022-12-01T09:38:51;33.95;;;15.70;;
55308;SDS011;44028;51.358;19.876;2022-12-01T09:41:26;34.30;;;14.55;;
55308;SDS011;44028;51.358;19.876;2022-12-01T09:46:44;30.13;;;13.80;;
55308;SDS011;44028;51.358;19.876;2022-12-01T09:49:25;25.52;;;12.63;;
55308;SDS011;44028;51.358;19.876;2022-12-01T09:52:06;36.60;;;18.25;;
55308;SDS011;44028;51.358;19.876;2022-12-01T09:54:35;43.80;;;21.35;;
55308;SDS011;44028;51.358;19.876;2022-12-01T09:57:02;36.53;;;15.82;;
55308;SDS011;44028;51.358;19.876;2022-12-01T09:59:36;30.00;;;14.15;;
55308;SDS011;44028;51.358;19.876;2022-12-01T10:02:12;33.20;;;14.38;;
55308;SDS011;44028;51.358;19.876;2022-12-01T10:04:43;30.17;;;13.48;;
55308;SDS011;44028;51.358;19.876;2022-12-01T10:10:04;26.80;;;13.50;;
55308;SDS011;44028;51.358;19.876;2022-12-01T10:12:32;27.33;;;12.60;;
55308;SDS011;44028;51.358;19.876;2022-12-01T10:30:50;28.23;;;13.40;;
55308;SDS011;44028;51.358;19.876;2022-12-01T10:35:44;27.05;;;12.88;;
55308;SDS011;44028;51.358;19.876;2022-12-01T10:38:12;27.58;;;13.02;;
55308;SDS011;44028;51.358;19.876;2022-12-01T10:40:40;27.88;;;13.15;;
55308;SDS011;44028;51.358;19.876;2022-12-01T10:43:10;28.40;;;12.38;;
55308;SDS011;44028;51.358;19.876;2022-12-01T10:45:39;29.58;;;13.48;;
55308;SDS011;44028;51.358;19.876;2022-12-01T10:48:14;27.40;;;12.07;;
55308;SDS011;44028;51.358;19.876;2022-12-01T10:50:52;26.70;;;12.65;;
55308;SDS011;44028;51.358;19.876;2022-12-01T10:55:50;28.95;;;12.75;;
55308;SDS011;44028;51.358;19.876;2022-12-01T10:58:17;26.30;;;13.38;;
55308;SDS011;44028;51.358;19.876;2022-12-01T11:00:53;26.20;;;13.27;;
55308;SDS011;44028;51.358;19.876;2022-12-01T11:05:57;24.05;;;11.88;;
55308;SDS011;44028;51.358;19.876;2022-12-01T11:10:54;24.02;;;11.68;;
55308;SDS011;44028;51.358;19.876;2022-12-01T11:13:23;25.70;;;12.23;;
55308;SDS011;44028;51.358;19.876;2022-12-01T11:15:52;22.50;;;11.48;;
55308;SDS011;44028;51.358;19.876;2022-12-01T11:18:28;23.42;;;11.63;;
55308;SDS011;44028;51.358;19.876;2022-12-01T11:23:36;31.70;;;17.92;;
55308;SDS011;44028;51.358;19.876;2022-12-01T11:26:05;29.38;;;14.70;;
55308;SDS011;44028;51.358;19.876;2022-12-01T11:28:32;25.00;;;13.55;;
55308;SDS011;44028;51.358;19.876;2022-12-01T11:31:02;23.92;;;13.05;;
55308;SDS011;44028;51.358;19.876;2022-12-01T11:33:30;25.17;;;12.57;;
55308;SDS011;44028;51.358;19.876;2022-12-01T11:35:57;26.63;;;12.90;;
55308;SDS011;44028;51.358;19.876;2022-12-01T11:38:31;29.60;;;13.05;;
55308;SDS011;44028;51.358;19.876;2022-12-01T11:41:08;30.35;;;14.38;;
55308;SDS011;44028;51.358;19.876;2022-12-01T11:43:48;37.72;;;20.00;;
55308;SDS011;44028;51.358;19.876;2022-12-01T11:49:54;29.45;;;14.15;;
55308;SDS011;44028;51.358;19.876;2022-12-01T11:55:18;27.30;;;14.30;;
55308;SDS011;44028;51.358;19.876;2022-12-01T11:57:47;26.50;;;13.90;;
55308;SDS011;44028;51.358;19.876;2022-12-01T12:00:19;30.00;;;16.10;;
55308;SDS011;44028;51.358;19.876;2022-12-01T12:21:00;19.77;;;10.82;;
55308;SDS011;44028;51.358;19.876;2022-12-01T12:23:53;24.23;;;12.18;;
55308;SDS011;44028;51.358;19.876;2022-12-01T12:26:18;22.42;;;10.50;;
55308;SDS011;44028;51.358;19.876;2022-12-01T12:31:29;25.20;;;11.85;;
55308;SDS011;44028;51.358;19.876;2022-12-01T12:39:03;42.13;;;14.32;;
55308;SDS011;44028;51.358;19.876;2022-12-01T12:41:45;38.95;;;13.95;;
55308;SDS011;44028;51.358;19.876;2022-12-01T12:53:18;42.42;;;13.68;;
55308;SDS011;44028;51.358;19.876;2022-12-01T12:56:02;47.38;;;16.67;;
55308;SDS011;44028;51.358;19.876;2022-12-01T12:58:33;49.80;;;16.75;;
55308;SDS011;44028;51.358;19.876;2022-12-01T13:03:41;41.05;;;14.75;;
55308;SDS011;44028;51.358;19.876;2022-12-01T13:06:23;34.67;;;14.00;;
55308;SDS011;44028;51.358;19.876;2022-12-01T13:17:13;36.58;;;15.40;;
55308;SDS011;44028;51.358;19.876;2022-12-01T13:19:50;33.65;;;14.27;;
55308;SDS011;44028;51.358;19.876;2022-12-01T13:22:35;27.67;;;12.23;;
55308;SDS011;44028;51.358;19.876;2022-12-01T13:25:25;32.55;;;16.20;;
55308;SDS011;44028;51.358;19.876;2022-12-01T13:28:28;34.08;;;16.17;;
55308;SDS011;44028;51.358;19.876;2022-12-01T13:31:11;29.98;;;15.70;;
55308;SDS011;44028;51.358;19.876;2022-12-01T13:33:59;44.40;;;24.73;;
55308;SDS011;44028;51.358;19.876;2022-12-01T13:36:48;69.05;;;31.80;;
55308;SDS011;44028;51.358;19.876;2022-12-01T13:39:20;42.58;;;18.63;;
55308;SDS011;44028;51.358;19.876;2022-12-01T13:44:41;117.68;;;47.85;;
55308;SDS011;44028;51.358;19.876;2022-12-01T13:49:41;56.83;;;26.48;;
55308;SDS011;44028;51.358;19.876;2022-12-01T13:52:16;62.67;;;27.73;;
55308;SDS011;44028;51.358;19.876;2022-12-01T13:57:27;71.35;;;31.42;;
55308;SDS011;44028;51.358;19.876;2022-12-01T14:02:28;37.25;;;16.85;;
55308;SDS011;44028;51.358;19.876;2022-12-01T14:07:42;77.20;;;37.83;;
55308;SDS011;44028;51.358;19.876;2022-12-01T14:12:50;53.05;;;25.90;;
55308;SDS011;44028;51.358;19.876;2022-12-01T14:18:26;45.55;;;24.38;;
55308;SDS011;44028;51.358;19.876;2022-12-01T14:20:47;64.57;;;29.38;;
55308;SDS011;44028;51.358;19.876;2022-12-01T14:31:17;79.72;;;37.17;;
55308;SDS011;44028;51.358;19.876;2022-12-01T14:33:45;58.78;;;27.25;;
55308;SDS011;44028;51.358;19.876;2022-12-01T14:39:07;74.35;;;30.98;;
55308;SDS011;44028;51.358;19.876;2022-12-01T14:44:11;58.50;;;27.45;;
55308;SDS011;44028;51.358;19.876;2022-12-01T14:46:43;111.60;;;42.60;;
55308;SDS011;44028;51.358;19.876;2022-12-01T14:49:12;124.95;;;47.40;;
55308;SDS011;44028;51.358;19.876;2022-12-01T14:51:40;139.95;;;33.75;;
55308;SDS011;44028;51.358;19.876;2022-12-01T14:56:53;58.38;;;19.38;;
55308;SDS011;44028;51.358;19.876;2022-12-01T14:59:21;57.70;;;22.40;;
55308;SDS011;44028;51.358;19.876;2022-12-01T15:01:50;80.70;;;30.13;;
55308;SDS011;44028;51.358;19.876;2022-12-01T15:04:17;58.13;;;19.98;;
55308;SDS011;44028;51.358;19.876;2022-12-01T15:06:54;69.72;;;22.65;;
55308;SDS011;44028;51.358;19.876;2022-12-01T15:09:22;49.03;;;20.33;;
55308;SDS011;44028;51.358;19.876;2022-12-01T15:12:04;83.82;;;30.77;;
55308;SDS011;44028;51.358;19.876;2022-12-01T15:14:38;116.65;;;37.72;;
55308;SDS011;44028;51.358;19.876;2022-12-01T15:17:26;262.88;;;68.10;;
55308;SDS011;44028;51.358;19.876;2022-12-01T15:19:53;261.73;;;84.57;;
55308;SDS011;44028;51.358;19.876;2022-12-01T15:22:29;382.73;;;132.38;;
55308;SDS011;44028;51.358;19.876;2022-12-01T15:27:37;54.22;;;23.30;;
55308;SDS011;44028;51.358;19.876;2022-12-01T15:30:05;57.45;;;22.35;;
55308;SDS011;44028;51.358;19.876;2022-12-01T15:32:33;61.00;;;29.40;;
55308;SDS011;44028;51.358;19.876;2022-12-01T15:35:03;48.50;;;26.00;;
55308;SDS011;44028;51.358;19.876;2022-12-01T15:37:38;49.28;;;22.40;;
55308;SDS011;44028;51.358;19.876;2022-12-01T15:40:06;42.90;;;21.08;;
55308;SDS011;44028;51.358;19.876;2022-12-01T15:43:04;34.92;;;15.40;;
55308;SDS011;44028;51.358;19.876;2022-12-01T15:48:31;39.97;;;18.73;;
55308;SDS011;44028;51.358;19.876;2022-12-01T15:51:10;41.97;;;18.10;;
55308;SDS011;44028;51.358;19.876;2022-12-01T15:53:44;44.70;;;20.75;;
55308;SDS011;44028;51.358;19.876;2022-12-01T15:56:13;39.58;;;16.77;;
55308;SDS011;44028;51.358;19.876;2022-12-01T15:58:46;47.60;;;20.20;;
55308;SDS011;44028;51.358;19.876;2022-12-01T16:03:59;67.90;;;28.83;;
55308;SDS011;44028;51.358;19.876;2022-12-01T16:06:31;43.70;;;18.10;;
55308;SDS011;44028;51.358;19.876;2022-12-01T16:09:00;44.85;;;19.02;;
55308;SDS011;44028;51.358;19.876;2022-12-01T16:11:36;52.45;;;20.48;;
55308;SDS011;44028;51.358;19.876;2022-12-01T16:16:48;43.63;;;18.48;;
55308;SDS011;44028;51.358;19.876;2022-12-01T16:21:46;49.40;;;21.42;;
55308;SDS011;44028;51.358;19.876;2022-12-01T16:24:14;40.85;;;17.77;;
55308;SDS011;44028;51.358;19.876;2022-12-01T16:26:49;33.72;;;15.20;;
55308;SDS011;44028;51.358;19.876;2022-12-01T16:29:22;47.63;;;19.30;;
55308;SDS011;44028;51.358;19.876;2022-12-01T16:31:49;52.80;;;22.63;;
55308;SDS011;44028;51.358;19.876;2022-12-01T16:34:37;38.05;;;15.98;;
55308;SDS011;44028;51.358;19.876;2022-12-01T16:37:12;36.08;;;14.93;;
55308;SDS011;44028;51.358;19.876;2022-12-01T16:39:39;45.03;;;19.50;;
55308;SDS011;44028;51.358;19.876;2022-12-01T16:42:09;50.45;;;24.25;;
55308;SDS011;44028;51.358;19.876;2022-12-01T16:44:36;46.70;;;20.27;;
55308;SDS011;44028;51.358;19.876;2022-12-01T16:47:08;46.50;;;18.58;;
55308;SDS011;44028;51.358;19.876;2022-12-01T16:49:35;35.60;;;16.10;;
55308;SDS011;44028;51.358;19.876;2022-12-01T16:52:02;39.83;;;15.93;;
55308;SDS011;44028;51.358;19.876;2022-12-01T16:54:49;32.92;;;15.15;;
55308;SDS011;44028;51.358;19.876;2022-12-01T16:57:17;37.33;;;15.73;;
55308;SDS011;44028;51.358;19.876;2022-12-01T16:59:43;34.92;;;17.90;;
55308;SDS011;44028;51.358;19.876;2022-12-01T17:02:10;54.42;;;22.90;;
55308;SDS011;44028;51.358;19.876;2022-12-01T17:04:37;48.50;;;21.02;;
55308;SDS011;44028;51.358;19.876;2022-12-01T17:07:04;61.88;;;22.90;;
55308;SDS011;44028;51.358;19.876;2022-12-01T17:09:31;38.53;;;16.80;;
55308;SDS011;44028;51.358;19.876;2022-12-01T17:11:58;48.03;;;18.88;;
55308;SDS011;44028;51.358;19.876;2022-12-01T17:14:25;51.38;;;23.48;;
55308;SDS011;44028;51.358;19.876;2022-12-01T17:16:52;208.90;;;61.97;;
55308;SDS011;44028;51.358;19.876;2022-12-01T17:19:23;61.80;;;24.65;;
55308;SDS011;44028;51.358;19.876;2022-12-01T17:21:52;49.63;;;19.15;;
55308;SDS011;44028;51.358;19.876;2022-12-01T17:24:21;51.03;;;20.05;;
55308;SDS011;44028;51.358;19.876;2022-12-01T17:26:51;39.78;;;18.23;;
55308;SDS011;44028;51.358;19.876;2022-12-01T17:29:18;53.65;;;19.45;;
55308;SDS011;44028;51.358;19.876;2022-12-01T17:31:45;53.47;;;21.55;;
55308;SDS011;44028;51.358;19.876;2022-12-01T17:34:14;93.22;;;30.77;;
55308;SDS011;44028;51.358;19.876;2022-12-01T17:36:43;49.30;;;19.95;;
55308;SDS011;44028;51.358;19.876;2022-12-01T17:39:10;78.15;;;32.42;;
55308;SDS011;44028;51.358;19.876;2022-12-01T17:41:37;58.90;;;26.38;;
55308;SDS011;44028;51.358;19.876;2022-12-01T17:44:07;57.65;;;36.03;;
55308;SDS011;44028;51.358;19.876;2022-12-01T17:46:34;41.45;;;18.48;;